Time;durP1;ratioP1;P1;durP2;ratioP2;P2;SDS_P1;SDS_P2;PMS_P1;PMS_P2;Temp;Humidity;BMP_temperature;BMP_pressure;BME280_temperature;BME280_humidity;BME280_pressure;Samples;Min_cycle;Max_cycle;Signal;HPM_P1;HPM_P2
2022/07/16 06:44:54;;;;;;;6.03;1.15;;;15.60;99.90;;;;;;4936023;28;20051;-76
2022/07/16 06:47:19;;;;;;;7.68;0.93;;;15.70;99.90;;;;;;5008187;28;20508;-70
2022/07/16 06:49:45;;;;;;;3.05;0.93;;;15.80;99.90;;;;;;5003194;28;20061;-72
2022/07/16 06:52:11;;;;;;;1.30;0.80;;;15.90;99.90;;;;;;5003239;28;20094;-70
2022/07/16 06:54:36;;;;;;;2.35;0.80;;;16.00;99.90;;;;;;5003166;28;20085;-71
2022/07/16 06:57:05;;;;;;;6.38;0.80;;;15.90;99.90;;;;;;5000860;28;21369;-70
2022/07/16 06:59:31;;;;;;;2.80;1.05;;;16.00;99.90;;;;;;5001236;28;20034;-71
2022/07/16 07:02:02;;;;;;;0.45;0.32;;;16.00;99.90;;;;;;5001781;28;20120;-73
2022/07/16 07:04:28;;;;;;;1.48;0.90;;;16.00;99.90;;;;;;5003296;28;20544;-71
2022/07/16 07:06:53;;;;;;;0.45;0.35;;;15.90;99.90;;;;;;5003768;28;20019;-72
2022/07/16 07:09:19;;;;;;;1.05;0.28;;;16.00;99.90;;;;;;5004564;28;20022;-70
2022/07/16 07:11:44;;;;;;;2.20;0.55;;;16.00;99.90;;;;;;5002415;28;20034;-72
2022/07/16 07:14:10;;;;;;;1.33;0.60;;;16.00;99.90;;;;;;5001670;28;20383;-73
2022/07/16 07:16:42;;;;;;;1.42;0.50;;;16.10;99.90;;;;;;5002095;28;20026;-71
2022/07/16 07:19:07;;;;;;;5.25;0.32;;;16.10;99.90;;;;;;5003918;28;20038;-70
2022/07/16 07:21:36;;;;;;;1.30;0.30;;;16.20;99.90;;;;;;5003518;28;20107;-72
2022/07/16 07:24:01;;;;;;;0.28;0.20;;;16.30;99.90;;;;;;5003745;28;20037;-74
2022/07/16 07:26:27;;;;;;;0.60;0.40;;;16.30;99.90;;;;;;5002523;28;20060;-73
2022/07/16 07:28:54;;;;;;;2.17;1.08;;;16.50;99.90;;;;;;5002990;28;20648;-71
2022/07/16 07:31:20;;;;;;;7.72;0.50;;;16.60;99.90;;;;;;5002105;28;20065;-68
2022/07/16 07:33:45;;;;;;;2.38;0.63;;;16.70;99.90;;;;;;5003508;28;20129;-75
2022/07/16 07:36:11;;;;;;;0.45;0.38;;;16.80;99.90;;;;;;5002736;28;20030;-74
2022/07/16 07:38:36;;;;;;;0.40;0.20;;;16.70;99.90;;;;;;5001875;28;20916;-71
2022/07/16 07:41:02;;;;;;;0.45;0.40;;;16.80;99.90;;;;;;5000968;28;20037;-70
2022/07/16 07:43:28;;;;;;;1.88;0.50;;;16.70;99.90;;;;;;5000327;28;20074;-72
2022/07/16 07:45:54;;;;;;;0.20;0.20;;;16.70;99.90;;;;;;5001667;28;20030;-73
2022/07/16 07:48:20;;;;;;;0.98;0.35;;;16.70;99.90;;;;;;5001851;28;20796;-71
2022/07/16 07:50:46;;;;;;;3.70;0.82;;;16.70;99.90;;;;;;5001913;28;20085;-73
2022/07/16 07:53:11;;;;;;;0.73;0.30;;;16.80;99.90;;;;;;5001973;28;20042;-72
2022/07/16 07:55:37;;;;;;;1.30;0.68;;;16.80;99.90;;;;;;5002527;28;20037;-71
2022/07/16 07:58:03;;;;;;;4.40;1.00;;;16.90;99.90;;;;;;5001315;28;20026;-72
2022/07/16 08:00:29;;;;;;;3.10;0.60;;;17.00;99.90;;;;;;5002740;28;20026;-71
2022/07/16 08:02:55;;;;;;;1.33;0.57;;;17.20;99.90;;;;;;5002251;28;20026;-73
2022/07/16 08:05:21;;;;;;;2.05;0.70;;;17.20;99.90;;;;;;5002757;28;20018;-71
2022/07/16 08:07:47;;;;;;;1.45;0.57;;;17.10;99.90;;;;;;5003454;28;20031;-70
2022/07/16 08:10:13;;;;;;;2.60;0.57;;;16.90;99.90;;;;;;5003185;28;20076;-72
2022/07/16 08:12:39;;;;;;;3.72;0.52;;;16.80;99.90;;;;;;5001751;28;20030;-72
2022/07/16 08:15:06;;;;;;;1.13;0.35;;;16.90;99.90;;;;;;5002964;28;20030;-71
2022/07/16 08:17:31;;;;;;;4.57;0.43;;;17.00;99.90;;;;;;5000365;28;20454;-71
2022/07/16 08:19:57;;;;;;;6.28;0.85;;;17.00;99.90;;;;;;5001590;28;20045;-72
2022/07/16 08:22:23;;;;;;;0.10;0.10;;;17.20;99.90;;;;;;5001553;28;20030;-74
2022/07/16 08:27:48;;;;;;;4.38;0.43;;;17.30;99.90;;;;;;5002330;28;20041;-70
2022/07/16 08:30:14;;;;;;;2.58;0.77;;;17.40;99.90;;;;;;5002726;28;20041;-74
2022/07/16 08:32:40;;;;;;;3.20;0.40;;;17.30;99.90;;;;;;5001255;28;20022;-72
2022/07/16 08:35:06;;;;;;;2.83;0.50;;;17.40;99.90;;;;;;5002381;28;20031;-70
2022/07/16 08:37:33;;;;;;;3.78;0.82;;;17.40;99.90;;;;;;5003419;28;20029;-73
2022/07/16 08:39:59;;;;;;;5.53;0.70;;;17.30;99.90;;;;;;5002481;28;20122;-72
2022/07/16 08:42:26;;;;;;;9.43;0.85;;;17.20;99.90;;;;;;5002830;28;20026;-74
2022/07/16 08:44:52;;;;;;;2.92;0.95;;;17.20;99.90;;;;;;5000427;28;20045;-72
2022/07/16 08:47:19;;;;;;;1.33;0.52;;;17.20;99.90;;;;;;5001208;28;20050;-74
2022/07/16 08:49:44;;;;;;;5.25;1.02;;;17.40;99.90;;;;;;5001569;28;20049;-70
2022/07/16 08:52:11;;;;;;;5.97;0.55;;;17.60;99.90;;;;;;5000249;28;20030;-71
2022/07/16 08:54:38;;;;;;;8.45;1.05;;;17.70;99.90;;;;;;5001924;28;20038;-71
2022/07/16 08:57:04;;;;;;;8.93;0.50;;;17.80;99.90;;;;;;5002273;28;20042;-74
2022/07/16 08:59:30;;;;;;;5.38;0.52;;;17.80;99.90;;;;;;5001489;28;20030;-71
2022/07/16 09:01:56;;;;;;;1.15;0.70;;;17.70;99.90;;;;;;5001412;28;20045;-72
2022/07/16 09:04:22;;;;;;;0.20;0.20;;;17.60;99.90;;;;;;5003102;28;20037;-71
2022/07/16 09:06:49;;;;;;;0.63;0.43;;;17.50;99.90;;;;;;5002502;28;20038;-68
2022/07/16 09:09:14;;;;;;;1.30;0.55;;;17.40;99.90;;;;;;5002289;28;20470;-70
2022/07/16 09:11:40;;;;;;;4.03;0.82;;;17.40;99.90;;;;;;5000718;28;20041;-70
2022/07/16 09:14:10;;;;;;;5.88;0.90;;;17.30;99.90;;;;;;5002429;28;20030;-73
2022/07/16 09:16:41;;;;;;;11.43;1.10;;;17.50;99.90;;;;;;5001697;28;20045;-75
2022/07/16 09:19:20;;;;;;;1.42;0.60;;;17.70;99.90;;;;;;4999255;28;20066;-76
2022/07/16 09:22:04;;;;;;;1.35;0.22;;;17.80;99.90;;;;;;5001721;28;20041;-75
2022/07/16 09:24:34;;;;;;;4.47;1.02;;;17.90;99.90;;;;;;5001434;28;20033;-73
2022/07/16 09:27:03;;;;;;;3.35;0.85;;;18.00;99.90;;;;;;5001128;28;20034;-71
2022/07/16 09:29:29;;;;;;;1.65;0.17;;;18.20;99.90;;;;;;5001235;28;20022;-73
2022/07/16 09:31:55;;;;;;;0.55;0.25;;;18.30;99.90;;;;;;5001413;28;20136;-70
2022/07/16 09:34:21;;;;;;;0.32;0.17;;;18.30;99.90;;;;;;5001296;28;20145;-72
2022/07/16 09:36:58;;;;;;;2.10;0.47;;;18.20;99.90;;;;;;5002275;28;20093;-70
2022/07/16 09:39:24;;;;;;;2.17;0.35;;;18.20;99.90;;;;;;5002333;28;20026;-73
2022/07/16 09:41:49;;;;;;;1.83;0.57;;;18.20;99.90;;;;;;5001716;28;20023;-72
2022/07/16 09:44:21;;;;;;;0.75;0.32;;;18.30;99.90;;;;;;5001269;28;20062;-74
2022/07/16 09:47:11;;;;;;;3.58;0.85;;;18.30;99.90;;;;;;5001760;28;20022;-72
2022/07/16 09:49:40;;;;;;;0.93;0.63;;;18.20;99.90;;;;;;5000502;28;20395;-73
2022/07/16 09:52:08;;;;;;;0.50;0.40;;;18.20;99.90;;;;;;5000413;28;20379;-72
2022/07/16 09:54:35;;;;;;;2.33;0.77;;;18.30;99.90;;;;;;5004214;28;20041;-72
2022/07/16 09:57:13;;;;;;;1.02;0.50;;;18.50;99.90;;;;;;5004067;28;20026;-74
2022/07/16 09:59:40;;;;;;;1.15;0.20;;;18.70;99.90;;;;;;5004053;28;20089;-74
2022/07/16 10:02:06;;;;;;;0.73;0.50;;;18.60;99.90;;;;;;5005366;28;20045;-71
2022/07/16 10:04:32;;;;;;;1.17;0.43;;;18.40;99.90;;;;;;5005317;28;20034;-74
2022/07/16 10:06:58;;;;;;;5.78;0.70;;;18.50;99.90;;;;;;5004748;28;20028;-75
2022/07/16 10:09:24;;;;;;;0.55;0.43;;;18.70;99.90;;;;;;5005541;28;20034;-69
2022/07/16 10:11:55;;;;;;;4.00;0.52;;;18.70;99.90;;;;;;5004590;28;20034;-70
2022/07/16 10:14:22;;;;;;;0.98;0.47;;;18.60;99.90;;;;;;5004793;28;20065;-69
2022/07/16 10:16:50;;;;;;;0.10;0.10;;;18.50;99.90;;;;;;5004885;28;20057;-72
2022/07/16 10:19:16;;;;;;;5.85;1.00;;;18.50;99.90;;;;;;5002690;28;20057;-70
2022/07/16 10:22:12;;;;;;;1.75;0.65;;;18.50;99.90;;;;;;5005291;28;20038;-73
2022/07/16 10:25:11;;;;;;;8.75;0.95;;;18.40;99.90;;;;;;5003723;28;20050;-71
2022/07/16 10:27:37;;;;;;;0.90;0.52;;;18.30;99.90;;;;;;5003700;28;20099;-71
2022/07/16 10:30:22;;;;;;;0.30;0.17;;;18.50;99.90;;;;;;5003281;28;20049;-72
2022/07/16 10:33:00;;;;;;;2.72;0.75;;;18.90;99.90;;;;;;5004094;28;20089;-73
2022/07/16 10:35:38;;;;;;;3.55;0.55;;;19.10;99.90;;;;;;5004228;28;20840;-73
2022/07/16 10:38:16;;;;;;;2.70;0.08;;;19.00;99.90;;;;;;5004706;28;20174;-74
2022/07/16 10:40:43;;;;;;;1.45;0.52;;;18.80;99.90;;;;;;5004995;28;20026;-71
2022/07/16 10:43:20;;;;;;;0.70;0.60;;;18.60;99.90;;;;;;5004490;28;20050;-72
2022/07/16 10:45:58;;;;;;;4.13;0.95;;;18.50;99.90;;;;;;5004495;28;20038;-72
2022/07/16 10:48:44;;;;;;;4.40;0.63;;;18.30;99.90;;;;;;5004524;28;20034;-72
2022/07/16 10:51:12;;;;;;;0.80;0.40;;;18.10;99.90;;;;;;5001564;28;20035;-71
2022/07/16 10:54:13;;;;;;;1.00;0.20;;;18.10;99.90;;;;;;5004378;28;20137;-74
2022/07/16 10:56:49;;;;;;;0.50;0.38;;;18.20;99.90;;;;;;5003123;28;20133;-72
2022/07/16 10:59:19;;;;;;;0.80;0.50;;;18.50;99.90;;;;;;5004409;28;20019;-70
2022/07/16 11:01:46;;;;;;;1.98;0.57;;;18.90;99.90;;;;;;5004648;28;20014;-71
2022/07/16 11:04:12;;;;;;;2.13;0.38;;;19.00;99.90;;;;;;5004403;28;20042;-70
2022/07/16 11:06:50;;;;;;;0.43;0.25;;;18.80;99.90;;;;;;5004230;28;20022;-71
2022/07/16 11:09:23;;;;;;;1.23;0.38;;;18.60;99.90;;;;;;5004209;28;20425;-70
2022/07/16 11:11:50;;;;;;;3.10;0.60;;;18.80;99.90;;;;;;5004203;28;20033;-68
2022/07/16 11:14:16;;;;;;;2.47;0.63;;;19.10;99.90;;;;;;5003784;28;20290;-72
2022/07/16 11:16:50;;;;;;;5.15;0.55;;;19.10;99.90;;;;;;5003221;28;20097;-69
2022/07/16 11:19:16;;;;;;;1.90;0.35;;;19.00;99.90;;;;;;5002890;28;20032;-69
2022/07/16 11:21:59;;;;;;;3.53;0.43;;;19.00;99.90;;;;;;5003054;28;20109;-71
2022/07/16 11:24:27;;;;;;;5.47;0.20;;;19.30;99.90;;;;;;5003464;28;20125;-71
2022/07/16 11:26:54;;;;;;;0.35;0.15;;;19.60;99.90;;;;;;4995507;28;20038;-76
2022/07/16 11:29:22;;;;;;;0.85;0.30;;;19.90;99.90;;;;;;5003193;28;20053;-73
2022/07/16 11:31:48;;;;;;;0.55;0.20;;;20.10;99.90;;;;;;5002836;28;20033;-70
2022/07/16 11:34:16;;;;;;;2.83;0.52;;;20.10;99.90;;;;;;5002568;28;20517;-72
2022/07/16 11:36:45;;;;;;;0.32;0.32;;;19.80;99.90;;;;;;5002053;28;20141;-73
2022/07/16 11:39:15;;;;;;;4.95;0.47;;;19.60;99.90;;;;;;5000789;28;20018;-73
2022/07/16 11:41:44;;;;;;;0.65;0.43;;;19.60;99.90;;;;;;5002388;28;20022;-74
2022/07/16 11:44:18;;;;;;;1.55;0.63;;;19.80;99.90;;;;;;5002290;28;20057;-70
2022/07/16 11:46:55;;;;;;;0.38;0.20;;;20.10;99.90;;;;;;5000374;28;20026;-71
2022/07/16 11:49:26;;;;;;;0.10;0.10;;;20.30;99.90;;;;;;5001878;28;20098;-73
2022/07/16 11:51:53;;;;;;;1.48;0.40;;;20.50;99.90;;;;;;5002215;28;20668;-73
2022/07/16 11:54:20;;;;;;;1.20;0.43;;;20.70;99.90;;;;;;5000616;28;20121;-72
2022/07/16 11:56:46;;;;;;;6.05;0.57;;;20.40;99.90;;;;;;5001318;28;20033;-71
2022/07/16 11:59:18;;;;;;;3.20;0.65;;;20.10;99.90;;;;;;5002487;28;20626;-72
2022/07/16 12:01:44;;;;;;;1.02;0.28;;;19.80;99.90;;;;;;5002059;28;20049;-70
2022/07/16 12:04:10;;;;;;;0.63;0.55;;;19.60;99.90;;;;;;4999634;28;20026;-71
2022/07/16 12:06:36;;;;;;;1.35;0.52;;;19.70;99.90;;;;;;5001699;28;20040;-70
2022/07/16 12:09:02;;;;;;;1.83;0.60;;;19.60;99.90;;;;;;5001080;28;20109;-71
2022/07/16 12:11:30;;;;;;;0.63;0.50;;;19.90;99.90;;;;;;5001469;28;20069;-71
2022/07/16 12:13:57;;;;;;;9.02;3.70;;;20.20;99.90;;;;;;5001669;28;20065;-74
2022/07/16 12:16:23;;;;;;;1.23;0.55;;;20.40;99.90;;;;;;5001318;28;20030;-72
2022/07/16 12:19:09;;;;;;;1.35;0.52;;;20.30;99.90;;;;;;5002118;28;20070;-72
2022/07/16 12:21:39;;;;;;;0.75;0.43;;;19.90;99.90;;;;;;5000974;28;20029;-74
2022/07/16 12:24:08;;;;;;;1.80;0.80;;;19.60;99.90;;;;;;5001360;28;20034;-72
2022/07/16 12:26:37;;;;;;;1.40;0.80;;;19.80;99.90;;;;;;4999250;28;20036;-74
2022/07/16 12:29:04;;;;;;;15.20;1.65;;;20.00;99.90;;;;;;5000529;28;20037;-69
2022/07/16 12:31:31;;;;;;;1.30;0.55;;;20.30;99.90;;;;;;5001205;28;20022;-72
2022/07/16 12:33:59;;;;;;;0.50;0.35;;;20.60;99.90;;;;;;5001866;28;20050;-74
2022/07/16 12:36:43;;;;;;;0.85;0.32;;;20.50;99.90;;;;;;5001608;28;20030;-73
2022/07/16 12:39:10;;;;;;;0.23;0.17;;;20.40;99.90;;;;;;5000690;28;20030;-72
2022/07/16 12:41:41;;;;;;;2.25;0.63;;;20.10;99.90;;;;;;5000912;28;20307;-72
2022/07/16 12:44:10;;;;;;;0.10;0.10;;;19.90;99.90;;;;;;5000828;28;20114;-73
2022/07/16 12:46:38;;;;;;;11.48;0.43;;;20.00;99.90;;;;;;5001293;28;20042;-72
2022/07/16 12:49:16;;;;;;;0.38;0.35;;;19.90;99.90;;;;;;5001015;28;20026;-72
2022/07/16 12:51:55;;;;;;;2.10;0.45;;;19.60;99.90;;;;;;5000876;28;20058;-71
2022/07/16 12:54:21;;;;;;;1.27;0.40;;;19.60;99.90;;;;;;5001556;28;20502;-73
2022/07/16 12:59:33;;;;;;;0.63;0.30;;;20.50;99.90;;;;;;5000155;28;20052;-76
2022/07/16 13:01:59;;;;;;;0.52;0.25;;;20.70;99.90;;;;;;5000046;28;20037;-72
2022/07/16 13:04:26;;;;;;;2.65;0.65;;;20.60;99.90;;;;;;4999495;28;20022;-72
2022/07/16 13:06:52;;;;;;;0.80;0.30;;;20.70;99.90;;;;;;5001228;28;20041;-72
2022/07/16 13:09:18;;;;;;;0.55;0.30;;;20.90;99.90;;;;;;5001109;28;20022;-72
2022/07/16 13:11:45;;;;;;;4.18;0.68;;;21.10;99.90;;;;;;5000825;28;20022;-75
2022/07/16 13:14:12;;;;;;;1.50;0.40;;;21.30;99.90;;;;;;4999332;28;20038;-72
2022/07/16 13:16:39;;;;;;;0.70;0.40;;;21.40;99.90;;;;;;4999507;28;20049;-74
2022/07/16 13:19:05;;;;;;;5.75;0.43;;;21.30;99.90;;;;;;4999607;28;20027;-72
2022/07/16 13:21:32;;;;;;;0.40;0.32;;;21.10;99.90;;;;;;5001858;28;20030;-73
2022/07/16 13:23:58;;;;;;;2.25;0.60;;;20.90;99.90;;;;;;5000219;28;20028;-72
2022/07/16 13:26:30;;;;;;;1.17;0.55;;;20.70;99.90;;;;;;5001919;28;20027;-74
2022/07/16 13:28:56;;;;;;;1.35;0.80;;;20.60;99.90;;;;;;4999956;28;20085;-74
2022/07/16 13:31:22;;;;;;;0.40;0.20;;;20.70;99.90;;;;;;5001954;28;20031;-73
2022/07/16 13:33:49;;;;;;;3.85;0.30;;;21.10;99.90;;;;;;4998336;28;20038;-72
2022/07/16 13:36:15;;;;;;;2.90;0.73;;;21.30;99.90;;;;;;4999107;28;20121;-72
2022/07/16 13:38:42;;;;;;;6.25;0.47;;;21.30;99.90;;;;;;5000729;28;20118;-74
2022/07/16 13:41:10;;;;;;;5.60;0.50;;;21.10;99.90;;;;;;5001427;28;20040;-71
2022/07/16 13:43:37;;;;;;;1.38;0.45;;;21.10;99.90;;;;;;4999639;28;20038;-73
2022/07/16 13:46:04;;;;;;;0.30;0.13;;;21.10;99.90;;;;;;5000959;28;20031;-72
2022/07/16 13:48:30;;;;;;;1.15;0.40;;;21.00;99.90;;;;;;5000415;28;20023;-71
2022/07/16 13:50:55;;;;;;;1.65;0.28;;;21.00;99.90;;;;;;4999590;28;20509;-70
2022/07/16 13:53:21;;;;;;;1.25;0.40;;;21.00;99.90;;;;;;4997380;28;20043;-73
2022/07/16 13:55:47;;;;;;;0.38;0.22;;;20.90;99.90;;;;;;4999503;28;20030;-73
2022/07/16 13:58:13;;;;;;;0.80;0.25;;;21.20;99.90;;;;;;5000621;28;20039;-73
2022/07/16 14:00:45;;;;;;;0.52;0.20;;;21.30;99.90;;;;;;5000242;28;20038;-72
2022/07/16 14:03:12;;;;;;;4.80;0.40;;;21.10;99.90;;;;;;5000300;28;20093;-72
2022/07/16 14:05:38;;;;;;;3.88;0.55;;;20.70;99.90;;;;;;5000176;28;20018;-73
2022/07/16 14:08:05;;;;;;;1.77;0.43;;;20.80;99.90;;;;;;5000828;28;20019;-71
2022/07/16 14:10:32;;;;;;;1.20;0.52;;;21.40;99.90;;;;;;5000704;28;20030;-71
2022/07/16 14:12:58;;;;;;;5.28;0.55;;;22.00;99.90;;;;;;5000335;28;20489;-70
2022/07/16 14:15:24;;;;;;;3.80;0.75;;;21.90;99.90;;;;;;5000702;28;20041;-69
2022/07/16 14:17:50;;;;;;;1.20;0.40;;;21.40;99.90;;;;;;4999932;28;20049;-72
2022/07/16 14:20:16;;;;;;;1.85;0.90;;;21.00;99.90;;;;;;4998934;28;20030;-74
2022/07/16 14:22:42;;;;;;;1.00;0.65;;;21.20;99.90;;;;;;4999295;28;20402;-71
2022/07/16 14:25:11;;;;;;;3.53;0.43;;;21.50;99.90;;;;;;5001418;28;20033;-72
2022/07/16 14:27:36;;;;;;;0.55;0.50;;;22.00;99.90;;;;;;5000621;28;20034;-72
2022/07/16 14:30:03;;;;;;;1.67;0.47;;;22.10;99.90;;;;;;4999710;28;20026;-71
2022/07/16 14:32:29;;;;;;;5.95;0.50;;;21.80;99.90;;;;;;5000196;28;20034;-76
2022/07/16 14:34:54;;;;;;;0.95;0.50;;;21.50;99.90;;;;;;5000451;28;20078;-72
2022/07/16 14:37:20;;;;;;;5.95;0.98;;;21.70;99.90;;;;;;4999932;28;20052;-71
2022/07/16 14:39:45;;;;;;;1.25;0.75;;;21.90;99.90;;;;;;5001750;28;20030;-72
2022/07/16 14:42:11;;;;;;;4.63;0.82;;;21.60;99.90;;;;;;5003684;28;20049;-71
2022/07/16 14:44:37;;;;;;;1.13;0.40;;;21.40;99.90;;;;;;5002618;28;20051;-72
2022/07/16 14:47:03;;;;;;;2.58;0.40;;;21.70;99.90;;;;;;5004609;28;20022;-71
2022/07/16 14:49:28;;;;;;;1.25;0.40;;;21.90;99.90;;;;;;5002176;28;20037;-72
2022/07/16 14:51:55;;;;;;;2.00;0.82;;;22.40;99.90;;;;;;4997839;28;20192;-75
2022/07/16 14:54:21;;;;;;;0.55;0.40;;;22.80;99.90;;;;;;5001813;28;20057;-74
2022/07/16 14:56:47;;;;;;;2.45;0.50;;;22.60;99.90;;;;;;4995536;28;20026;-73
2022/07/16 14:59:13;;;;;;;1.00;0.50;;;22.20;99.90;;;;;;4998446;28;20426;-73
2022/07/16 15:01:39;;;;;;;0.98;0.47;;;22.30;99.90;;;;;;5002452;28;20042;-75
2022/07/16 15:04:05;;;;;;;2.83;0.73;;;22.60;99.90;;;;;;5002718;28;20018;-74
2022/07/16 15:06:32;;;;;;;0.85;0.35;;;23.00;99.90;;;;;;5003818;28;20049;-73
2022/07/16 15:08:57;;;;;;;1.15;0.50;;;22.70;99.90;;;;;;5004144;28;20026;-74
2022/07/16 15:11:23;;;;;;;2.40;0.55;;;22.10;99.90;;;;;;5001854;28;20019;-74
2022/07/16 15:13:49;;;;;;;0.40;0.40;;;21.60;99.90;;;;;;5003393;28;20041;-75
2022/07/16 15:16:24;;;;;;;1.95;0.70;;;21.60;99.90;;;;;;5002697;28;20033;-77
2022/07/16 15:18:49;;;;;;;1.88;0.43;;;21.90;99.90;;;;;;5002997;28;20077;-76
2022/07/16 15:21:15;;;;;;;1.13;0.60;;;22.50;99.90;;;;;;5003292;28;20049;-77
2022/07/16 15:23:40;;;;;;;2.08;0.47;;;23.10;99.90;;;;;;5002509;28;20023;-74
2022/07/16 15:26:06;;;;;;;1.23;0.73;;;23.30;99.90;;;;;;5002142;28;20038;-76
2022/07/16 15:28:32;;;;;;;0.50;0.30;;;23.40;99.90;;;;;;5003132;28;20042;-76
2022/07/16 15:30:57;;;;;;;2.60;0.88;;;23.50;99.90;;;;;;5003437;28;20034;-73
2022/07/16 15:33:40;;;;;;;0.70;0.38;;;23.20;99.90;;;;;;5003319;28;20085;-76
2022/07/16 15:36:07;;;;;;;2.83;0.60;;;23.30;99.90;;;;;;5003404;28;20030;-74
2022/07/16 15:38:33;;;;;;;1.27;0.60;;;23.90;99.90;;;;;;5002980;28;20486;-73
2022/07/16 15:40:59;;;;;;;3.85;0.98;;;23.70;99.90;;;;;;5003263;28;20031;-74
2022/07/16 15:43:25;;;;;;;5.43;0.45;;;23.40;99.90;;;;;;5002513;28;20058;-75
2022/07/16 15:45:51;;;;;;;1.80;0.65;;;22.90;99.90;;;;;;5002908;28;20022;-74
2022/07/16 15:48:17;;;;;;;7.55;0.38;;;22.70;99.90;;;;;;5000694;28;20149;-77
2022/07/16 15:50:42;;;;;;;1.58;0.38;;;22.60;99.90;;;;;;5001295;28;20034;-76
2022/07/16 15:53:08;;;;;;;0.47;0.45;;;22.10;99.90;;;;;;5001148;28;20027;-72
2022/07/16 15:55:33;;;;;;;0.47;0.28;;;21.90;99.90;;;;;;5001059;28;20026;-74
2022/07/16 15:58:01;;;;;;;2.97;0.60;;;22.30;99.90;;;;;;5002715;28;20316;-73
2022/07/16 16:00:27;;;;;;;0.52;0.25;;;22.20;99.90;;;;;;5002680;28;20030;-75
2022/07/16 16:02:56;;;;;;;2.53;0.57;;;22.10;99.90;;;;;;5003259;28;20619;-74
2022/07/16 16:05:22;;;;;;;1.27;0.30;;;22.50;99.90;;;;;;5001800;28;20049;-72
2022/07/16 16:07:48;;;;;;;1.73;0.70;;;22.80;99.90;;;;;;5000897;28;20037;-74
2022/07/16 16:10:14;;;;;;;0.43;0.20;;;22.70;99.90;;;;;;5002705;28;20050;-74
2022/07/16 16:12:42;;;;;;;0.55;0.32;;;22.40;99.90;;;;;;5000877;28;20104;-75
2022/07/16 16:15:17;;;;;;;3.03;0.47;;;22.50;99.90;;;;;;4999492;28;20049;-74
2022/07/16 16:17:43;;;;;;;8.40;0.45;;;23.00;99.90;;;;;;5002725;28;20050;-71
2022/07/16 16:20:11;;;;;;;8.75;0.75;;;23.40;99.90;;;;;;5002077;28;20018;-76
2022/07/16 16:22:38;;;;;;;0.95;0.38;;;23.50;99.90;;;;;;5002188;28;20033;-73
2022/07/16 16:25:05;;;;;;;1.90;0.35;;;23.80;99.90;;;;;;5002037;28;20042;-75
2022/07/16 16:27:31;;;;;;;6.25;0.68;;;23.90;99.90;;;;;;5001391;28;20053;-75
2022/07/16 16:29:58;;;;;;;0.25;0.17;;;23.90;99.90;;;;;;5002333;28;20032;-74
2022/07/16 16:32:26;;;;;;;0.38;0.32;;;23.90;99.90;;;;;;5001772;28;20451;-77
2022/07/16 16:34:52;;;;;;;2.70;0.57;;;24.00;99.90;;;;;;5001407;28;20034;-74
2022/07/16 16:37:18;;;;;;;1.77;0.52;;;24.30;99.90;;;;;;5002389;28;20019;-76
2022/07/16 16:39:44;;;;;;;0.30;0.30;;;24.70;99.90;;;;;;5001746;28;20082;-70
2022/07/16 16:42:10;;;;;;;0.00;0.00;;;24.90;99.90;;;;;;5001299;28;20049;-75
2022/07/16 16:44:37;;;;;;;1.10;0.45;;;24.70;99.90;;;;;;5001657;28;20046;-74
2022/07/16 16:47:03;;;;;;;2.47;0.85;;;24.80;99.90;;;;;;5001681;28;20026;-75
2022/07/16 16:49:29;;;;;;;3.20;0.80;;;24.70;99.90;;;;;;5001559;28;20037;-75
2022/07/16 16:51:55;;;;;;;3.03;0.60;;;24.70;99.90;;;;;;5000708;28;20031;-74
2022/07/16 16:54:21;;;;;;;3.03;0.50;;;24.70;99.90;;;;;;5000925;28;20410;-71
2022/07/16 16:56:46;;;;;;;0.55;0.25;;;24.40;99.90;;;;;;5001649;28;20371;-77
2022/07/16 16:59:13;;;;;;;3.78;0.88;;;24.10;99.90;;;;;;5001787;28;20019;-73
2022/07/16 17:01:39;;;;;;;7.30;1.02;;;24.10;99.90;;;;;;4999190;28;20027;-74
2022/07/16 17:04:06;;;;;;;4.50;0.77;;;24.00;99.90;;;;;;4999620;28;20057;-73
2022/07/16 17:06:32;;;;;;;1.08;0.38;;;23.90;99.90;;;;;;4999659;28;20113;-75
2022/07/16 17:08:59;;;;;;;6.97;0.82;;;24.00;99.90;;;;;;5000313;28;20123;-74
2022/07/16 17:11:26;;;;;;;4.43;0.50;;;24.10;99.90;;;;;;5001426;28;20034;-74
2022/07/16 17:13:52;;;;;;;4.13;0.73;;;24.00;99.90;;;;;;5000025;28;20040;-74
2022/07/16 17:16:18;;;;;;;0.73;0.32;;;23.60;99.90;;;;;;5002494;28;20065;-76
2022/07/16 17:18:43;;;;;;;1.45;0.38;;;23.20;99.90;;;;;;5000700;28;20022;-76
2022/07/16 17:21:09;;;;;;;0.73;0.40;;;22.60;99.90;;;;;;5001361;28;20034;-74
2022/07/16 17:23:35;;;;;;;3.58;0.77;;;22.10;99.90;;;;;;5001179;28;20109;-74
2022/07/16 17:26:00;;;;;;;1.45;0.55;;;21.50;99.90;;;;;;5001731;28;20027;-74
2022/07/16 17:28:26;;;;;;;3.50;0.68;;;20.90;99.90;;;;;;5001549;28;20022;-74
2022/07/16 17:30:51;;;;;;;0.95;0.75;;;20.50;99.90;;;;;;5002192;28;20061;-75
2022/07/16 17:33:20;;;;;;;0.50;0.20;;;20.10;99.90;;;;;;5002298;28;20027;-71
2022/07/16 17:35:46;;;;;;;1.63;0.50;;;20.20;99.90;;;;;;5000737;28;20089;-74
2022/07/16 17:38:11;;;;;;;1.63;0.68;;;20.90;99.90;;;;;;5000888;28;20446;-77
2022/07/16 17:40:37;;;;;;;6.20;0.73;;;20.90;99.90;;;;;;5000812;28;20018;-75
2022/07/16 17:43:03;;;;;;;7.50;0.57;;;20.70;99.90;;;;;;5000811;28;20046;-75
2022/07/16 17:45:29;;;;;;;5.10;0.70;;;20.50;99.90;;;;;;5001458;28;20113;-76
2022/07/16 17:47:54;;;;;;;0.75;0.50;;;20.50;99.90;;;;;;5001746;28;20034;-76
2022/07/16 17:50:20;;;;;;;1.52;0.60;;;20.80;99.90;;;;;;5000352;28;20030;-74
2022/07/16 17:52:46;;;;;;;5.43;0.60;;;21.30;99.90;;;;;;5001155;28;20030;-76
2022/07/16 17:55:13;;;;;;;0.63;0.52;;;21.80;99.90;;;;;;5002035;28;20039;-73
2022/07/16 17:57:39;;;;;;;4.93;0.52;;;22.10;99.90;;;;;;4999586;28;20042;-74
2022/07/16 18:00:08;;;;;;;3.40;0.65;;;22.30;99.90;;;;;;5000531;28;20101;-74
2022/07/16 18:02:34;;;;;;;5.97;0.73;;;22.20;99.90;;;;;;4999933;28;20037;-71
2022/07/16 18:05:00;;;;;;;1.40;0.30;;;21.90;99.90;;;;;;5001428;28;20060;-74
2022/07/16 18:07:26;;;;;;;2.00;0.57;;;21.50;99.90;;;;;;5002137;28;20022;-73
2022/07/16 18:09:52;;;;;;;3.28;0.50;;;20.90;99.90;;;;;;5001333;28;20022;-73
2022/07/16 18:12:17;;;;;;;0.65;0.30;;;20.50;99.90;;;;;;5000176;28;20090;-75
2022/07/16 18:14:43;;;;;;;1.85;0.52;;;20.20;99.90;;;;;;5003007;28;20036;-72
2022/07/16 18:17:09;;;;;;;4.95;0.93;;;19.90;99.90;;;;;;5005599;28;20014;-74
2022/07/16 18:19:35;;;;;;;0.32;0.28;;;19.60;99.90;;;;;;5004521;28;20449;-76
2022/07/16 18:22:01;;;;;;;0.63;0.25;;;19.40;99.90;;;;;;5005860;28;20042;-76
2022/07/16 18:24:26;;;;;;;6.57;0.80;;;19.10;99.90;;;;;;5005325;28;20490;-76
2022/07/16 18:26:52;;;;;;;7.10;0.63;;;19.00;99.90;;;;;;5005427;28;20030;-75
2022/07/16 18:29:19;;;;;;;1.05;0.35;;;19.00;99.90;;;;;;5005056;28;20034;-74
2022/07/16 18:31:45;;;;;;;0.52;0.43;;;18.90;99.90;;;;;;5004379;28;20046;-74
2022/07/16 18:34:10;;;;;;;1.70;0.60;;;18.70;99.90;;;;;;5004105;28;20410;-73
2022/07/16 18:36:36;;;;;;;1.15;0.60;;;18.50;99.90;;;;;;5005167;28;20077;-74
2022/07/16 18:39:02;;;;;;;5.35;0.60;;;18.30;99.90;;;;;;5003742;28;20030;-75
2022/07/16 18:41:28;;;;;;;3.60;0.82;;;18.20;99.90;;;;;;5003224;28;20037;-76
2022/07/16 18:43:54;;;;;;;1.83;0.52;;;18.00;99.90;;;;;;5004637;28;20059;-77
2022/07/16 18:46:22;;;;;;;4.15;0.80;;;18.00;99.90;;;;;;5002639;28;20037;-74
2022/07/16 18:48:48;;;;;;;15.35;1.15;;;17.90;99.90;;;;;;5004008;28;20065;-76
2022/07/16 18:51:14;;;;;;;7.75;1.70;;;17.90;99.90;;;;;;5003629;28;20491;-74
2022/07/16 18:53:39;;;;;;;0.88;0.55;;;17.80;99.90;;;;;;5003354;28;20050;-77
2022/07/16 18:56:08;;;;;;;2.72;0.70;;;17.60;99.90;;;;;;4999220;28;20046;-74
2022/07/16 18:58:38;;;;;;;3.03;0.98;;;17.50;99.90;;;;;;5001926;28;20137;-73
2022/07/16 19:01:05;;;;;;;0.57;0.45;;;17.40;99.90;;;;;;5001916;28;20030;-74
2022/07/16 19:03:32;;;;;;;1.05;0.57;;;17.40;99.90;;;;;;5003061;28;20034;-74
2022/07/16 19:05:59;;;;;;;3.38;0.63;;;17.30;99.90;;;;;;4997896;28;20030;-73
2022/07/16 19:08:29;;;;;;;5.88;0.93;;;17.30;99.90;;;;;;4999289;28;20094;-73
2022/07/16 19:10:55;;;;;;;3.83;0.77;;;17.20;99.90;;;;;;4998962;28;20034;-74
2022/07/16 19:13:20;;;;;;;3.80;0.73;;;17.10;99.90;;;;;;5003496;28;20033;-73
2022/07/16 19:15:46;;;;;;;7.68;0.90;;;17.00;99.90;;;;;;5004381;28;20048;-74
2022/07/16 19:18:11;;;;;;;6.03;0.73;;;16.90;99.90;;;;;;5003956;28;20027;-72
2022/07/16 19:20:37;;;;;;;6.60;0.95;;;16.90;99.90;;;;;;5003705;28;20489;-73
2022/07/16 19:23:05;;;;;;;2.33;0.88;;;16.90;99.90;;;;;;5003563;28;20090;-74
2022/07/16 19:25:31;;;;;;;1.15;0.52;;;16.90;99.90;;;;;;5003529;28;20029;-72
2022/07/16 19:27:57;;;;;;;1.42;0.75;;;17.00;99.90;;;;;;5003094;28;20034;-73
2022/07/16 19:30:22;;;;;;;1.70;0.70;;;16.90;99.90;;;;;;5002878;28;20022;-71
2022/07/16 19:32:48;;;;;;;10.23;1.13;;;16.90;99.90;;;;;;5002846;28;20155;-74
2022/07/16 19:35:14;;;;;;;3.20;0.68;;;16.90;99.90;;;;;;4999566;28;20058;-73
2022/07/16 19:37:40;;;;;;;0.88;0.50;;;16.80;99.90;;;;;;4994756;28;20057;-73